createdAt,value
2018-11-07T00:01:11.969Z,99.90
2018-11-07T00:03:40.247Z,99.90
2018-11-07T00:06:08.483Z,99.90
2018-11-07T00:08:36.803Z,99.90
2018-11-07T00:11:05.057Z,99.90
2018-11-07T00:13:33.303Z,99.90
2018-11-07T00:16:01.663Z,99.90
2018-11-07T00:18:29.949Z,99.90
2018-11-07T00:20:58.222Z,99.90
2018-11-07T00:23:26.547Z,99.90
2018-11-07T00:25:54.832Z,99.90
2018-11-07T00:28:23.076Z,99.90
2018-11-07T00:30:51.364Z,99.90
2018-11-07T00:33:19.643Z,99.90
2018-11-07T00:35:47.900Z,99.90
2018-11-07T00:38:16.182Z,99.90
2018-11-07T00:40:44.414Z,99.90
2018-11-07T00:43:12.699Z,99.90
2018-11-07T00:45:41.167Z,99.90
2018-11-07T00:48:09.458Z,99.90
2018-11-07T00:50:37.738Z,99.90
2018-11-07T00:53:06.028Z,99.90
2018-11-07T00:55:34.377Z,99.90
2018-11-07T00:58:02.660Z,99.90
2018-11-07T01:00:30.926Z,99.90
2018-11-07T01:02:59.195Z,99.90
2018-11-07T01:05:27.467Z,99.90
2018-11-07T01:07:55.812Z,99.90
2018-11-07T01:10:24.076Z,99.90
2018-11-07T01:12:52.325Z,99.90
2018-11-07T01:15:20.657Z,99.90
2018-11-07T01:17:48.982Z,99.90
2018-11-07T01:20:17.263Z,99.90
2018-11-07T01:22:45.560Z,99.90
2018-11-07T01:25:13.817Z,99.90
2018-11-07T01:27:42.073Z,99.90
2018-11-07T01:30:12.306Z,99.90
2018-11-07T01:32:40.645Z,99.90
2018-11-07T01:35:09.193Z,99.90
2018-11-07T01:37:37.553Z,99.90
2018-11-07T01:40:09.121Z,99.90
2018-11-07T01:42:37.367Z,99.90
2018-11-07T01:45:06.821Z,99.90
2018-11-07T01:47:35.075Z,99.90
2018-11-07T01:50:03.354Z,99.90
2018-11-07T01:52:31.662Z,99.90
2018-11-07T01:54:59.980Z,99.90
2018-11-07T01:57:28.251Z,99.90
2018-11-07T01:59:56.477Z,99.90
2018-11-07T02:02:24.804Z,99.90
2018-11-07T02:04:53.068Z,99.90
2018-11-07T02:07:21.355Z,99.90
2018-11-07T02:09:49.749Z,99.90
2018-11-07T02:12:18.031Z,99.90
2018-11-07T02:14:46.988Z,99.90
2018-11-07T02:17:15.249Z,99.90
2018-11-07T02:19:43.541Z,99.90
2018-11-07T02:22:11.822Z,99.90
2018-11-07T02:24:40.111Z,99.90
2018-11-07T02:27:08.346Z,99.90
2018-11-07T02:29:36.884Z,99.90
2018-11-07T02:32:05.233Z,99.90
2018-11-07T02:34:33.518Z,99.90
2018-11-07T02:37:01.786Z,99.90
2018-11-07T02:39:30.062Z,99.90
2018-11-07T02:41:58.449Z,99.90
2018-11-07T02:44:26.570Z,99.90
2018-11-07T02:46:54.851Z,99.90
2018-11-07T02:49:23.091Z,99.90
2018-11-07T02:51:51.366Z,99.90
2018-11-07T02:54:19.646Z,99.90
2018-11-07T02:56:47.924Z,99.90
2018-11-07T02:59:16.193Z,99.90
2018-11-07T03:01:44.823Z,99.90
2018-11-07T03:04:13.103Z,99.90
2018-11-07T03:06:41.344Z,99.90
2018-11-07T03:09:10.429Z,99.90
2018-11-07T03:11:38.728Z,99.90
2018-11-07T03:14:07.511Z,99.90
2018-11-07T03:16:35.817Z,99.90
2018-11-07T03:19:04.473Z,99.90
2018-11-07T03:21:32.805Z,99.90
2018-11-07T03:24:01.528Z,99.90
2018-11-07T03:26:29.789Z,99.90
2018-11-07T03:28:58.097Z,99.90
2018-11-07T03:31:26.390Z,99.90
2018-11-07T03:33:55.080Z,99.90
2018-11-07T03:36:23.405Z,99.90
2018-11-07T03:38:51.660Z,99.90
2018-11-07T03:41:19.982Z,99.90
2018-11-07T03:43:48.249Z,99.90
2018-11-07T03:46:16.528Z,99.90
2018-11-07T03:48:44.820Z,99.90
2018-11-07T03:51:13.104Z,99.90
2018-11-07T03:53:41.401Z,99.90
2018-11-07T03:56:09.660Z,99.90
2018-11-07T03:58:37.923Z,99.90
2018-11-07T04:01:06.962Z,99.90
2018-11-07T04:03:35.227Z,99.90
2018-11-07T04:06:03.548Z,99.90
2018-11-07T04:08:31.853Z,99.90
2018-11-07T04:11:00.736Z,99.90
2018-11-07T04:13:29.102Z,99.90
2018-11-07T04:15:57.557Z,99.90
2018-11-07T04:18:25.805Z,99.90
2018-11-07T04:20:54.097Z,99.90
2018-11-07T04:23:22.357Z,99.90
2018-11-07T04:25:50.626Z,99.90
2018-11-07T04:28:19.005Z,99.90
2018-11-07T04:30:47.347Z,99.90
2018-11-07T04:33:15.580Z,99.90
2018-11-07T04:35:43.849Z,99.90
2018-11-07T04:38:12.167Z,99.90
2018-11-07T04:40:40.423Z,99.90
2018-11-07T04:43:08.741Z,99.90
2018-11-07T04:45:37.009Z,99.90
2018-11-07T04:48:05.578Z,99.90
2018-11-07T04:50:33.875Z,99.90
2018-11-07T04:53:02.166Z,99.90
2018-11-07T04:55:30.445Z,99.90
2018-11-07T04:57:58.735Z,99.90
2018-11-07T05:00:27.042Z,99.90
2018-11-07T05:02:55.308Z,99.90
2018-11-07T05:05:23.560Z,99.90
2018-11-07T05:07:51.850Z,99.90
2018-11-07T05:10:20.324Z,99.90
2018-11-07T05:12:48.655Z,99.90
2018-11-07T05:15:16.975Z,99.90
2018-11-07T05:17:45.286Z,99.90
2018-11-07T05:20:13.602Z,99.90
2018-11-07T05:22:42.610Z,99.90
2018-11-07T05:25:11.321Z,99.90
2018-11-07T05:27:40.185Z,99.90
2018-11-07T05:30:09.629Z,99.90
2018-11-07T05:32:37.878Z,99.90
2018-11-07T05:35:06.635Z,99.90
2018-11-07T05:37:34.925Z,99.90
2018-11-07T05:40:03.182Z,99.90
2018-11-07T05:42:31.469Z,99.90
2018-11-07T05:44:59.734Z,99.90
2018-11-07T05:47:28.022Z,99.90
2018-11-07T05:49:56.254Z,99.90
2018-11-07T05:52:24.536Z,99.90
2018-11-07T05:54:52.829Z,99.90
2018-11-07T05:57:21.159Z,99.90
2018-11-07T05:59:49.446Z,99.90
2018-11-07T06:02:17.690Z,99.90
2018-11-07T06:04:45.968Z,99.90
2018-11-07T06:07:14.226Z,99.90
2018-11-07T06:09:42.519Z,99.90
2018-11-07T06:12:10.804Z,99.90
2018-11-07T06:14:39.041Z,99.90
2018-11-07T06:17:07.296Z,99.90
2018-11-07T06:19:35.572Z,99.90
2018-11-07T06:22:03.794Z,99.90
2018-11-07T06:24:32.091Z,99.90
2018-11-07T06:27:00.195Z,99.90
2018-11-07T06:29:28.524Z,99.90
2018-11-07T06:31:56.719Z,99.90
2018-11-07T06:34:24.954Z,99.90
2018-11-07T06:36:53.156Z,99.90
2018-11-07T06:39:21.332Z,99.90
2018-11-07T06:41:49.528Z,99.90
2018-11-07T06:44:17.807Z,99.90
2018-11-07T06:46:45.976Z,99.90
2018-11-07T06:49:14.265Z,99.90
2018-11-07T06:51:42.500Z,99.90
2018-11-07T06:54:10.802Z,99.90
2018-11-07T06:56:39.009Z,99.90
2018-11-07T06:59:07.184Z,99.90
2018-11-07T07:01:35.652Z,99.90
2018-11-07T07:04:03.877Z,99.90
2018-11-07T07:06:32.053Z,99.90
2018-11-07T07:09:00.313Z,99.90
2018-11-07T07:11:28.506Z,99.90
2018-11-07T07:13:56.704Z,99.90
2018-11-07T07:16:24.921Z,99.90
2018-11-07T07:18:53.123Z,99.90
2018-11-07T07:21:21.333Z,99.90
2018-11-07T07:23:49.596Z,99.90
2018-11-07T07:26:17.805Z,99.90
2018-11-07T07:28:46.000Z,99.90
2018-11-07T07:31:14.257Z,99.90
2018-11-07T07:33:43.286Z,99.90
2018-11-07T07:36:11.452Z,99.90
2018-11-07T07:38:39.653Z,99.90
2018-11-07T07:41:07.832Z,99.90
2018-11-07T07:43:36.073Z,99.90
2018-11-07T07:46:04.666Z,99.90
2018-11-07T07:48:32.861Z,99.90
2018-11-07T07:51:01.100Z,99.90
2018-11-07T07:53:29.309Z,96.40
2018-11-07T07:55:57.518Z,96.60
2018-11-07T07:58:25.710Z,98.70
2018-11-07T08:00:53.911Z,99.80
2018-11-07T08:03:22.162Z,99.90
2018-11-07T08:05:50.372Z,99.90
2018-11-07T08:08:18.599Z,99.90
2018-11-07T08:10:47.366Z,99.90
2018-11-07T08:13:15.605Z,99.90
2018-11-07T08:15:43.807Z,99.90
2018-11-07T08:18:12.040Z,99.90
2018-11-07T08:20:40.282Z,99.90
2018-11-07T08:23:08.505Z,99.90
2018-11-07T08:25:36.801Z,99.90
2018-11-07T08:28:05.346Z,99.90
2018-11-07T08:30:33.597Z,99.40
2018-11-07T08:33:01.815Z,98.30
2018-11-07T08:35:30.033Z,97.30
2018-11-07T08:37:58.249Z,97.70
2018-11-07T08:40:26.456Z,96.50
2018-11-07T08:42:54.698Z,96.10
2018-11-07T08:45:22.914Z,96.00
2018-11-07T08:47:51.116Z,95.10
2018-11-07T08:50:20.601Z,94.70
2018-11-07T08:52:49.265Z,94.40
2018-11-07T08:55:18.873Z,94.00
2018-11-07T08:57:47.058Z,93.70
2018-11-07T09:00:17.514Z,92.80
2018-11-07T09:02:45.890Z,92.30
2018-11-07T09:05:14.794Z,91.00
2018-11-07T09:07:43.663Z,90.30
2018-11-07T09:12:41.242Z,60.90
2018-11-07T09:15:12.036Z,56.50
2018-11-07T09:17:40.269Z,51.40
2018-11-07T09:20:10.389Z,45.90
2018-11-07T09:22:38.696Z,45.10
2018-11-07T09:25:07.074Z,43.20
2018-11-07T09:27:35.395Z,41.20
2018-11-07T09:30:03.723Z,43.00
2018-11-07T09:32:32.049Z,41.50
2018-11-07T09:35:00.252Z,40.90
2018-11-07T09:37:28.437Z,40.60
2018-11-07T09:39:56.690Z,40.80
2018-11-07T09:42:24.913Z,40.30
2018-11-07T09:44:53.133Z,41.50
2018-11-07T09:47:21.400Z,41.60
2018-11-07T09:49:49.633Z,40.60
2018-11-07T09:52:17.881Z,40.50
2018-11-07T09:54:46.193Z,38.30
2018-11-07T09:57:14.390Z,36.90
2018-11-07T09:59:42.601Z,35.30
2018-11-07T10:02:10.882Z,36.20
2018-11-07T10:04:39.094Z,38.40
2018-11-07T10:07:07.288Z,38.50
2018-11-07T10:09:35.543Z,38.10
2018-11-07T10:12:03.782Z,39.10
2018-11-07T10:14:31.988Z,41.30
2018-11-07T10:17:00.198Z,42.10
2018-11-07T10:19:28.429Z,44.60
2018-11-07T10:21:56.608Z,48.50
2018-11-07T10:24:24.810Z,49.60
2018-11-07T10:26:53.075Z,52.90
2018-11-07T10:29:21.491Z,51.90
2018-11-07T10:31:49.388Z,52.30
2018-11-07T10:34:17.629Z,53.50
2018-11-07T10:36:45.814Z,53.40
2018-11-07T10:41:41.962Z,55.70
2018-11-07T10:44:10.196Z,56.90
2018-11-07T10:46:38.392Z,57.70
2018-11-07T10:49:06.589Z,57.10
2018-11-07T10:51:34.822Z,57.70
2018-11-07T10:54:03.027Z,57.50
2018-11-07T10:56:31.258Z,56.60
2018-11-07T10:59:00.340Z,56.30
2018-11-07T11:01:33.861Z,56.60
2018-11-07T11:04:02.073Z,56.50
2018-11-07T11:06:30.314Z,57.90
2018-11-07T11:08:58.532Z,56.60
2018-11-07T11:11:26.859Z,57.00
2018-11-07T11:13:55.008Z,57.40
2018-11-07T11:16:23.208Z,55.30
2018-11-07T11:18:51.461Z,53.10
2018-11-07T11:21:19.664Z,51.30
2018-11-07T11:23:47.880Z,50.60
2018-11-07T11:26:16.093Z,53.80
2018-11-07T11:28:44.313Z,53.60
2018-11-07T11:31:12.520Z,54.90
2018-11-07T11:33:40.800Z,56.90
2018-11-07T11:36:08.976Z,56.50
2018-11-07T11:38:37.168Z,57.10
2018-11-07T11:41:05.626Z,57.30
2018-11-07T11:43:33.761Z,58.40
2018-11-07T11:46:01.951Z,57.90
2018-11-07T11:48:30.137Z,59.50
2018-11-07T11:50:58.320Z,60.30
2018-11-07T11:53:26.490Z,62.60
2018-11-07T11:55:54.701Z,62.20
2018-11-07T11:58:22.904Z,60.70
2018-11-07T12:00:51.101Z,60.80
2018-11-07T12:03:19.284Z,60.30
2018-11-07T12:05:47.474Z,60.90
2018-11-07T12:08:15.676Z,61.00
2018-11-07T12:10:43.864Z,61.30
2018-11-07T12:13:12.092Z,60.60
2018-11-07T12:15:40.309Z,60.20
2018-11-07T12:18:08.496Z,60.10
2018-11-07T12:20:37.126Z,59.30
2018-11-07T12:23:05.424Z,59.30
2018-11-07T12:25:33.634Z,59.50
2018-11-07T12:28:01.825Z,60.40
2018-11-07T12:30:30.017Z,59.80
2018-11-07T12:32:58.214Z,59.80
2018-11-07T12:35:26.408Z,60.10
2018-11-07T12:37:54.618Z,62.80
2018-11-07T12:40:22.816Z,62.40
2018-11-07T12:42:51.094Z,62.30
2018-11-07T12:45:19.243Z,62.30
2018-11-07T12:47:47.463Z,61.40
2018-11-07T12:50:20.168Z,61.10
2018-11-07T12:52:48.365Z,61.80
2018-11-07T12:55:17.295Z,61.10
2018-11-07T12:57:45.535Z,61.50
2018-11-07T13:00:16.326Z,61.60
2018-11-07T13:02:44.527Z,62.60
2018-11-07T13:05:13.945Z,63.80
2018-11-07T13:07:42.823Z,63.90
2018-11-07T13:10:13.049Z,63.90
2018-11-07T13:12:42.036Z,63.90
2018-11-07T13:15:10.953Z,63.10
2018-11-07T13:17:39.209Z,62.60
2018-11-07T13:20:09.641Z,63.80
2018-11-07T13:22:37.922Z,64.00
2018-11-07T13:25:06.834Z,64.00
2018-11-07T13:27:35.148Z,65.20
2018-11-07T13:30:03.446Z,64.20
2018-11-07T13:32:31.740Z,63.90
2018-11-07T13:35:00.028Z,65.50
2018-11-07T13:37:28.456Z,65.60
2018-11-07T13:39:56.361Z,67.00
2018-11-07T13:42:24.569Z,65.70
2018-11-07T13:44:52.769Z,66.60
2018-11-07T13:47:20.996Z,68.40
2018-11-07T13:49:49.198Z,68.80
2018-11-07T13:52:17.432Z,68.90
2018-11-07T13:54:45.649Z,69.60
2018-11-07T13:57:13.852Z,70.20
2018-11-07T13:59:42.069Z,70.90
2018-11-07T14:02:10.385Z,71.00
2018-11-07T14:04:38.646Z,71.00
2018-11-07T14:07:06.900Z,70.50
2018-11-07T14:09:35.165Z,70.50
2018-11-07T14:12:03.409Z,70.90
2018-11-07T14:14:31.699Z,70.80
2018-11-07T14:16:59.954Z,71.20
2018-11-07T14:19:31.219Z,71.90
2018-11-07T14:21:59.433Z,72.10
2018-11-07T14:24:27.668Z,72.00
2018-11-07T14:26:55.893Z,72.90
2018-11-07T14:29:24.066Z,73.20
2018-11-07T14:31:52.264Z,72.40
2018-11-07T14:34:20.461Z,72.80
2018-11-07T14:36:48.643Z,72.50
2018-11-07T14:39:16.962Z,73.10
2018-11-07T14:41:45.018Z,73.70
2018-11-07T14:44:13.200Z,74.30
2018-11-07T14:46:41.548Z,74.70
2018-11-07T14:49:09.622Z,75.20
2018-11-07T14:51:37.805Z,75.20
2018-11-07T14:54:06.249Z,75.40
2018-11-07T14:56:34.452Z,75.80
2018-11-07T14:59:02.636Z,75.60
2018-11-07T15:01:31.044Z,75.50
2018-11-07T15:03:59.216Z,75.60
2018-11-07T15:06:27.428Z,75.70
2018-11-07T15:08:55.686Z,76.00
2018-11-07T15:11:23.853Z,76.20
2018-11-07T15:13:51.936Z,76.80
2018-11-07T15:16:20.136Z,77.50
2018-11-07T15:18:48.339Z,77.70
2018-11-07T15:21:16.529Z,77.40
2018-11-07T15:23:44.756Z,77.50
2018-11-07T15:26:12.946Z,78.10
2018-11-07T15:28:41.153Z,78.50
2018-11-07T15:31:09.358Z,79.10
2018-11-07T15:33:37.588Z,79.60
2018-11-07T15:36:05.835Z,79.90
2018-11-07T15:38:33.985Z,80.00
2018-11-07T15:41:02.175Z,80.20
2018-11-07T15:43:30.437Z,80.60
2018-11-07T15:45:58.505Z,81.00
2018-11-07T15:48:26.675Z,81.50
2018-11-07T15:51:00.265Z,81.90
2018-11-07T15:53:28.510Z,82.30
2018-11-07T15:55:56.765Z,82.80
2018-11-07T15:58:24.990Z,83.30
2018-11-07T16:00:53.198Z,83.30
2018-11-07T16:03:26.837Z,84.00
2018-11-07T16:05:55.058Z,84.40
2018-11-07T16:08:23.253Z,84.80
2018-11-07T16:10:51.473Z,85.30
2018-11-07T16:13:20.168Z,85.60
2018-11-07T16:15:48.814Z,85.70
2018-11-07T16:18:17.041Z,86.20
2018-11-07T16:20:45.463Z,87.60
2018-11-07T16:23:13.878Z,86.40
2018-11-07T16:25:42.380Z,86.80
2018-11-07T16:28:10.940Z,86.90
2018-11-07T16:30:39.502Z,87.10
2018-11-07T16:33:07.806Z,87.20
2018-11-07T16:35:36.160Z,87.70
2018-11-07T16:38:04.560Z,87.90
2018-11-07T16:40:32.784Z,88.90
2018-11-07T16:43:00.989Z,88.80
2018-11-07T16:45:29.325Z,90.20
2018-11-07T16:47:57.717Z,89.80
2018-11-07T16:50:27.714Z,90.10
2018-11-07T16:52:55.954Z,90.30
2018-11-07T16:55:24.187Z,89.90
2018-11-07T16:57:52.454Z,89.70
2018-11-07T17:00:21.258Z,90.10
2018-11-07T17:02:50.247Z,90.30
2018-11-07T17:05:19.319Z,90.30
2018-11-07T17:07:47.995Z,90.50
2018-11-07T17:10:16.585Z,90.60
2018-11-07T17:12:44.910Z,91.40
2018-11-07T17:15:13.435Z,90.70
2018-11-07T17:17:42.604Z,90.70
2018-11-07T17:20:14.422Z,90.90
2018-11-07T17:22:44.845Z,91.20
2018-11-07T17:25:15.329Z,91.50
2018-11-07T17:27:43.595Z,91.80
2018-11-07T17:30:12.867Z,92.70
2018-11-07T17:32:41.191Z,92.70
2018-11-07T17:35:11.598Z,93.60
2018-11-07T17:37:39.924Z,93.50
2018-11-07T17:40:10.707Z,93.90
2018-11-07T17:42:39.017Z,94.50
2018-11-07T17:45:09.841Z,95.90
2018-11-07T17:47:38.409Z,96.00
2018-11-07T17:50:07.613Z,96.30
2018-11-07T17:52:35.937Z,96.70
2018-11-07T17:55:04.244Z,97.00
2018-11-07T17:57:32.556Z,96.80
2018-11-07T18:00:00.829Z,97.10
2018-11-07T18:02:29.174Z,97.30
2018-11-07T18:04:57.438Z,97.30
2018-11-07T18:07:25.733Z,97.50
2018-11-07T18:09:54.084Z,97.60
2018-11-07T18:12:22.289Z,98.00
2018-11-07T18:14:50.696Z,98.40
2018-11-07T18:17:19.039Z,98.40
2018-11-07T18:19:47.353Z,98.60
2018-11-07T18:22:15.744Z,99.00
2018-11-07T18:24:44.018Z,99.10
2018-11-07T18:27:12.414Z,98.50
2018-11-07T18:29:40.694Z,98.80
2018-11-07T18:32:08.999Z,98.30
2018-11-07T18:34:37.398Z,98.50
2018-11-07T18:37:06.732Z,98.50
2018-11-07T18:39:34.991Z,98.50
2018-11-07T18:42:03.420Z,98.60
2018-11-07T18:44:31.942Z,98.60
2018-11-07T18:47:00.134Z,98.80
2018-11-07T18:49:28.521Z,98.80
2018-11-07T18:51:56.871Z,98.70
2018-11-07T18:54:25.203Z,98.80
2018-11-07T18:56:53.426Z,98.80
2018-11-07T18:59:21.634Z,98.90
2018-11-07T19:01:49.954Z,99.00
2018-11-07T19:04:18.231Z,99.40
2018-11-07T19:06:46.617Z,99.40
2018-11-07T19:09:14.850Z,99.20
2018-11-07T19:11:43.167Z,99.20
2018-11-07T19:14:12.441Z,99.50
2018-11-07T19:16:40.720Z,99.40
2018-11-07T19:19:08.959Z,99.40
2018-11-07T19:21:37.264Z,99.30
2018-11-07T19:24:05.683Z,99.60
2018-11-07T19:26:33.911Z,99.80
2018-11-07T19:29:02.123Z,99.90
2018-11-07T19:31:30.398Z,99.90
2018-11-07T19:33:58.679Z,99.90
2018-11-07T19:36:26.944Z,99.90
2018-11-07T19:38:55.250Z,99.90
2018-11-07T19:41:23.643Z,99.90
2018-11-07T19:43:51.888Z,99.90
2018-11-07T19:46:20.204Z,99.90
2018-11-07T19:48:48.495Z,99.90
2018-11-07T19:51:16.806Z,99.90
2018-11-07T19:53:45.144Z,99.90
2018-11-07T19:56:13.321Z,99.90
2018-11-07T19:58:41.889Z,99.90
2018-11-07T20:01:10.219Z,99.90
2018-11-07T20:03:38.497Z,99.90
2018-11-07T20:06:06.782Z,99.90
2018-11-07T20:08:35.224Z,99.90
2018-11-07T20:11:03.491Z,99.90
2018-11-07T20:13:31.789Z,99.90
2018-11-07T20:16:00.100Z,99.90
2018-11-07T20:21:07.510Z,99.90
2018-11-07T20:23:35.797Z,99.90
2018-11-07T20:26:04.080Z,99.90
2018-11-07T20:28:32.359Z,99.90
2018-11-07T20:31:01.015Z,99.90
2018-11-07T20:33:29.293Z,99.90
2018-11-07T20:35:57.830Z,99.90
2018-11-07T20:38:25.837Z,99.90
2018-11-07T20:40:54.313Z,99.90
2018-11-07T20:43:22.615Z,99.90
2018-11-07T20:45:50.881Z,99.90
2018-11-07T20:48:19.495Z,99.90
2018-11-07T20:50:47.761Z,99.90
2018-11-07T20:53:16.062Z,99.90
2018-11-07T20:55:44.293Z,99.90
2018-11-07T20:58:12.525Z,99.90
2018-11-07T21:00:40.765Z,99.90
2018-11-07T21:03:09.112Z,99.90
2018-11-07T21:05:37.434Z,99.90
2018-11-07T21:08:05.660Z,99.90
2018-11-07T21:10:33.912Z,99.90
2018-11-07T21:13:02.162Z,99.90
2018-11-07T21:15:30.401Z,99.90
2018-11-07T21:17:58.660Z,99.90
2018-11-07T21:20:26.884Z,99.90
2018-11-07T21:22:55.159Z,99.90
2018-11-07T21:25:23.421Z,99.90
2018-11-07T21:27:51.675Z,99.90
2018-11-07T21:30:19.927Z,99.90
2018-11-07T21:32:48.165Z,99.90
2018-11-07T21:35:16.419Z,99.90
2018-11-07T21:37:44.667Z,99.90
2018-11-07T21:40:14.850Z,99.90
2018-11-07T21:42:43.251Z,99.90
2018-11-07T21:45:12.466Z,99.90
2018-11-07T21:47:41.341Z,99.90
2018-11-07T21:50:10.954Z,99.90
2018-11-07T21:52:39.546Z,99.90
2018-11-07T21:55:07.859Z,99.90
2018-11-07T21:57:36.431Z,99.90
2018-11-07T22:00:07.590Z,99.90
2018-11-07T22:02:35.892Z,99.90
2018-11-07T22:05:04.107Z,99.90
2018-11-07T22:07:32.330Z,99.90
2018-11-07T22:10:00.588Z,99.90
2018-11-07T22:12:28.843Z,99.90
2018-11-07T22:14:57.062Z,99.90
2018-11-07T22:17:25.304Z,99.90
2018-11-07T22:19:53.528Z,99.90
2018-11-07T22:22:21.759Z,99.90
2018-11-07T22:24:50.009Z,99.90
2018-11-07T22:27:18.273Z,99.90
2018-11-07T22:29:46.559Z,99.90
2018-11-07T22:32:15.009Z,99.90
2018-11-07T22:34:43.253Z,99.90
2018-11-07T22:37:11.510Z,99.90
2018-11-07T22:39:39.725Z,99.90
2018-11-07T22:42:07.956Z,99.90
2018-11-07T22:44:36.197Z,99.90
2018-11-07T22:47:04.419Z,99.90
2018-11-07T22:49:32.660Z,99.90
2018-11-07T22:52:00.881Z,99.90
2018-11-07T22:54:29.116Z,99.90
2018-11-07T22:56:57.351Z,99.90
2018-11-07T22:59:25.610Z,99.90
2018-11-07T23:01:53.846Z,99.90
2018-11-07T23:04:22.069Z,99.90
2018-11-07T23:06:50.359Z,99.90
2018-11-07T23:09:18.617Z,99.90
2018-11-07T23:11:46.868Z,99.90
2018-11-07T23:14:15.696Z,99.90
2018-11-07T23:16:44.205Z,99.90
2018-11-07T23:19:12.753Z,99.90
2018-11-07T23:21:41.000Z,99.90
2018-11-07T23:24:09.268Z,99.90
2018-11-07T23:26:38.126Z,99.90
2018-11-07T23:29:06.371Z,99.90
2018-11-07T23:31:34.627Z,99.90
2018-11-07T23:34:02.910Z,99.90
2018-11-07T23:36:31.200Z,99.90
2018-11-07T23:38:59.540Z,99.90
2018-11-07T23:41:27.785Z,99.90
2018-11-07T23:43:56.038Z,99.90
2018-11-07T23:46:24.307Z,99.90
2018-11-07T23:48:52.564Z,99.90
2018-11-07T23:51:20.891Z,99.90
2018-11-07T23:53:49.137Z,99.90
2018-11-07T23:56:17.368Z,99.90
2018-11-07T23:58:45.604Z,99.90
